M I D A S
Marine Information and Data Acquisition System
Tripno 1951 of the Zeeleeuw from 2010-09-02 04:33:45 to 2010-09-02 17:55:37
Back to CruiseResearch ActivitiesStationsMapUnderway DataData graphs

EquipmentUnitsComment
TimeDGPSUTC
LatitudeDGPSDM.mWGS84
LongitudeDGPSDM.mWGS84
HeadingGyrodeg 
SOGDGPSknotsSpeed over ground
COGDGPSdegCourse over ground
DepthEcho soundermeters200 kHz
Missing or incorrect values are displayed as -999
Navigation data collected by the RV Zeeleeuw from 2010-09-02 04:11:33 to 2010-09-02 18:05:22
                                                                                    Next 1000 lines
Time Latitude Longitude Heading SOG COG Depth
2010-09-02 04:11:44 51°13.664 2°55.959 127.3 -999 162 7.9
2010-09-02 04:11:49 51°13.664 2°55.959 127.3 -999 9 8
2010-09-02 04:11:54 51°13.664 2°55.959 127.3 -999 230 8
2010-09-02 04:11:59 51°13.664 2°55.959 127.3 -999 79 8
2010-09-02 04:12:04 51°13.664 2°55.959 127.3 0.1 352 8
2010-09-02 04:12:08 51°13.664 2°55.959 127.3 -999 18 7.9
2010-09-02 04:12:14 51°13.664 2°55.959 127.3 0.1 189 8
2010-09-02 04:12:19 51°13.664 2°55.959 127.3 0.1 173 8
2010-09-02 04:12:24 51°13.664 2°55.959 127.3 0.1 10 8
2010-09-02 04:12:28 51°13.664 2°55.959 127.3 -999 199 7.9
2010-09-02 04:12:33 51°13.664 2°55.958 127.4 -999 357 8
2010-09-02 04:12:39 51°13.664 2°55.958 127.4 -999 2 7.9
2010-09-02 04:12:43 51°13.664 2°55.959 127.4 -999 135 7.9
2010-09-02 04:12:49 51°13.664 2°55.958 127.4 -999 7 7.9
2010-09-02 04:12:53 51°13.664 2°55.958 127.4 -999 155 8
2010-09-02 04:12:59 51°13.665 2°55.959 127.4 -999 236 8
2010-09-02 04:13:04 51°13.665 2°55.959 127.4 -999 336 8
2010-09-02 04:13:08 51°13.665 2°55.959 127.4 -999 167 8
2010-09-02 04:13:13 51°13.664 2°55.959 127.4 0.1 15 8
2010-09-02 04:13:19 51°13.664 2°55.959 127.4 -999 -999 7.9
2010-09-02 04:13:24 51°13.664 2°55.959 127.4 -999 157 7.9
2010-09-02 04:13:28 51°13.664 2°55.959 127.5 0.1 177 8
2010-09-02 04:13:34 51°13.664 2°55.959 127.5 0.1 180 8
2010-09-02 04:13:39 51°13.664 2°55.959 127.6 0.1 148 8
2010-09-02 04:13:44 51°13.664 2°55.959 127.7 0.1 21 8.1
2010-09-02 04:13:48 51°13.664 2°55.959 127.7 -999 142 8.1
2010-09-02 04:13:53 51°13.663 2°55.959 127.8 -999 166 8
2010-09-02 04:13:59 51°13.662 2°55.959 127.8 -999 318 8
2010-09-02 04:14:04 51°13.661 2°55.959 127.8 -999 76 8
2010-09-02 04:14:08 51°13.661 2°55.959 127.9 -999 163 8
2010-09-02 04:14:13 51°13.66 2°55.959 127.9 0.1 159 8
2010-09-02 04:14:19 51°13.66 2°55.959 127.9 -999 202 8
2010-09-02 04:14:24 51°13.659 2°55.959 127.9 -999 349 8
2010-09-02 04:14:28 51°13.659 2°55.959 127.9 -999 321 8
2010-09-02 04:14:33 51°13.66 2°55.959 127.9 -999 173 8
2010-09-02 04:14:39 51°13.66 2°55.959 127.9 -999 188 8
2010-09-02 04:14:43 51°13.66 2°55.959 127.9 -999 264 8
2010-09-02 04:14:49 51°13.661 2°55.959 127.9 -999 180 8
2010-09-02 04:14:53 51°13.662 2°55.959 127.9 -999 219 8
2010-09-02 04:14:59 51°13.662 2°55.959 127.9 -999 358 8
2010-09-02 04:15:03 51°13.662 2°55.959 127.9 -999 175 8
2010-09-02 04:15:08 51°13.662 2°55.959 127.9 -999 165 8
2010-09-02 04:15:14 51°13.662 2°55.959 127.9 -999 180 8
2010-09-02 04:15:19 51°13.662 2°55.959 128 -999 246 8
2010-09-02 04:15:24 51°13.663 2°55.959 128.3 -999 313 8
2010-09-02 04:15:28 51°13.663 2°55.959 128.3 0.1 332 8
2010-09-02 04:15:33 51°13.663 2°55.959 128.1 0.1 324 8
2010-09-02 04:15:39 51°13.664 2°55.959 127.7 0.1 341 8
2010-09-02 04:15:44 51°13.664 2°55.959 127.1 0.1 335 8
2010-09-02 04:15:48 51°13.664 2°55.959 126.4 0.1 349 8
2010-09-02 04:15:53 51°13.664 2°55.959 125.8 0.1 343 8.1
2010-09-02 04:15:59 51°13.664 2°55.959 125.1 0.1 350 8
2010-09-02 04:16:04 51°13.664 2°55.959 124.6 -999 212 8
2010-09-02 04:16:08 51°13.664 2°55.959 124.2 -999 177 8
2010-09-02 04:16:13 51°13.664 2°55.959 124.2 -999 186 8
2010-09-02 04:16:19 51°13.664 2°55.959 124.2 -999 168 8
2010-09-02 04:16:24 51°13.664 2°55.959 124.3 -999 318 8
2010-09-02 04:16:28 51°13.664 2°55.959 124.4 -999 92 7.9
2010-09-02 04:16:33 51°13.664 2°55.959 124.4 -999 111 8
2010-09-02 04:16:38 51°13.664 2°55.959 124.4 0.1 176 8
2010-09-02 04:16:44 51°13.664 2°55.959 124.6 -999 298 8
2010-09-02 04:16:48 51°13.664 2°55.959 124.9 0.1 185 8
2010-09-02 04:16:53 51°13.663 2°55.959 125.3 0.1 170 8
2010-09-02 04:16:59 51°13.663 2°55.959 125.8 0.2 174 8
2010-09-02 04:17:03 51°13.663 2°55.959 126.3 0.1 167 8
2010-09-02 04:17:09 51°13.663 2°55.959 126.7 -999 166 8
2010-09-02 04:17:13 51°13.663 2°55.959 127.1 -999 159 8
2010-09-02 04:17:19 51°13.663 2°55.959 127.2 -999 256 8
2010-09-02 04:17:23 51°13.664 2°55.959 127.2 -999 13 8
2010-09-02 04:17:28 51°13.664 2°55.959 127.2 -999 193 8.1
2010-09-02 04:17:34 51°13.664 2°55.959 127.1 -999 232 8
2010-09-02 04:17:39 51°13.664 2°55.959 126.9 -999 208 8
2010-09-02 04:17:44 51°13.664 2°55.959 126.6 -999 340 8
2010-09-02 04:17:48 51°13.664 2°55.959 126.4 -999 177 8
2010-09-02 04:17:53 51°13.664 2°55.959 126.3 0.1 324 8
2010-09-02 04:17:59 51°13.664 2°55.959 126.2 0.1 356 8.1
2010-09-02 04:18:04 51°13.664 2°55.959 126.2 -999 119 8.1
2010-09-02 04:18:08 51°13.664 2°55.959 126.2 -999 134 8.1
2010-09-02 04:18:13 51°13.664 2°55.959 126.2 -999 199 8
2010-09-02 04:18:19 51°13.664 2°55.959 126.2 -999 159 8
2010-09-02 04:18:24 51°13.664 2°55.959 126.2 -999 202 8
2010-09-02 04:18:28 51°13.664 2°55.959 126.2 -999 181 8
2010-09-02 04:18:33 51°13.664 2°55.959 126.3 -999 186 8
2010-09-02 04:18:39 51°13.664 2°55.959 126.3 -999 5 8.1
2010-09-02 04:18:44 51°13.664 2°55.959 126.3 0.1 354 8
2010-09-02 04:18:48 51°13.664 2°55.959 126.3 -999 98 8
2010-09-02 04:18:53 51°13.664 2°55.959 126.4 0.1 152 8
2010-09-02 04:18:59 51°13.664 2°55.959 126.7 0.1 136 8
2010-09-02 04:19:04 51°13.664 2°55.959 127.1 -999 109 8
2010-09-02 04:19:08 51°13.663 2°55.959 127.7 0.1 148 8
2010-09-02 04:19:13 51°13.663 2°55.959 128.3 0.1 109 8
2010-09-02 04:19:19 51°13.663 2°55.959 129.1 -999 309 8
2010-09-02 04:19:23 51°13.664 2°55.959 129.5 -999 6 8
2010-09-02 04:19:28 51°13.663 2°55.959 129.4 -999 43 8
2010-09-02 04:19:33 51°13.663 2°55.959 129.3 -999 220 8
2010-09-02 04:19:39 51°13.663 2°55.959 129.3 0.1 168 8
2010-09-02 04:19:44 51°13.663 2°55.959 129.3 -999 136 8
2010-09-02 04:19:48 51°13.663 2°55.959 129.3 -999 340 8
2010-09-02 04:19:53 51°13.663 2°55.959 129.3 -999 335 8
2010-09-02 04:19:59 51°13.663 2°55.959 129.3 0.3 6 8
2010-09-02 04:20:04 51°13.663 2°55.959 129.3 0.1 4 8
2010-09-02 04:20:08 51°13.662 2°55.959 129.3 -999 190 8
2010-09-02 04:20:13 51°13.661 2°55.959 129.3 0.1 183 8
2010-09-02 04:20:19 51°13.661 2°55.959 129.3 -999 353 8
2010-09-02 04:20:24 51°13.662 2°55.959 129.3 -999 167 8
2010-09-02 04:20:28 51°13.662 2°55.959 129.3 -999 37 8
2010-09-02 04:20:33 51°13.663 2°55.96 129.3 -999 32 8
2010-09-02 04:20:39 51°13.663 2°55.96 129.3 0.1 21 8
2010-09-02 04:20:44 51°13.663 2°55.96 129.3 0.1 19 8
2010-09-02 04:20:48 51°13.663 2°55.96 129.3 0.1 194 8
2010-09-02 04:20:53 51°13.664 2°55.96 129.3 0.1 184 8
2010-09-02 04:20:59 51°13.664 2°55.96 129.3 0.1 177 8
2010-09-02 04:21:04 51°13.664 2°55.96 129.3 -999 27 8
2010-09-02 04:21:08 51°13.663 2°55.96 129.3 0.1 19 8
2010-09-02 04:21:13 51°13.663 2°55.96 129.3 0.1 75 8.1
2010-09-02 04:21:19 51°13.663 2°55.96 129.3 -999 87 8.1
2010-09-02 04:21:23 51°13.663 2°55.96 129.3 0.1 105 8.1
2010-09-02 04:21:28 51°13.664 2°55.96 129.4 0.1 43 8.1
2010-09-02 04:21:33 51°13.664 2°55.96 129.4 -999 149 8
2010-09-02 04:21:39 51°13.664 2°55.96 129.1 -999 25 8
2010-09-02 04:21:44 51°13.664 2°55.96 129.1 -999 219 8
2010-09-02 04:21:49 51°13.664 2°55.96 129.1 0.1 202 8.1
2010-09-02 04:21:53 51°13.664 2°55.96 129.2 0.1 228 8
2010-09-02 04:21:58 51°13.663 2°55.96 129.4 0.1 191 8
2010-09-02 04:22:03 51°13.663 2°55.96 129.4 -999 122 8
2010-09-02 04:22:08 51°13.664 2°55.96 129.5 -999 68 8
2010-09-02 04:22:13 51°13.663 2°55.96 129.5 -999 177 8
2010-09-02 04:22:19 51°13.663 2°55.96 129.5 -999 67 8
2010-09-02 04:22:23 51°13.663 2°55.96 129.5 -999 190 8
2010-09-02 04:22:28 51°13.663 2°55.959 129.6 -999 150 8
2010-09-02 04:22:32 51°13.663 2°55.959 129.6 -999 43 8
2010-09-02 04:22:38 51°13.663 2°55.959 129.6 -999 56 8
2010-09-02 04:22:43 51°13.663 2°55.959 129.6 -999 142 8
2010-09-02 04:22:48 51°13.663 2°55.959 129.6 0.1 183 8.1
2010-09-02 04:22:52 51°13.663 2°55.959 129.6 0.1 33 8
2010-09-02 04:22:59 51°13.663 2°55.959 129.6 0.1 21 8
2010-09-02 04:23:03 51°13.662 2°55.959 129.6 0.1 98 8.1
2010-09-02 04:23:08 51°13.662 2°55.959 129 0.1 82 8
2010-09-02 04:23:12 51°13.663 2°55.96 128 0.2 43 8.1
2010-09-02 04:23:19 51°13.663 2°55.96 126.6 0.2 45 8.1
2010-09-02 04:23:24 51°13.663 2°55.96 124.8 0.1 47 8
2010-09-02 04:23:29 51°13.662 2°55.96 123.4 -999 164 8
2010-09-02 04:23:33 51°13.662 2°55.96 121.5 0.1 193 8
2010-09-02 04:23:38 51°13.662 2°55.96 120.6 0.1 191 8.1
2010-09-02 04:23:44 51°13.662 2°55.96 119.8 0.1 186 8
2010-09-02 04:23:49 51°13.662 2°55.96 118.8 0.1 188 8
2010-09-02 04:23:53 51°13.662 2°55.96 117.7 0.1 184 8.1
2010-09-02 04:23:58 51°13.662 2°55.96 116.8 0.1 190 8
2010-09-02 04:24:04 51°13.662 2°55.959 116.2 0.1 195 8
2010-09-02 04:24:09 51°13.662 2°55.959 115.4 0.1 195 8.1
2010-09-02 04:24:13 51°13.661 2°55.96 114.6 -999 194 8
2010-09-02 04:24:19 51°13.662 2°55.96 114 -999 85 8.1
2010-09-02 04:24:24 51°13.662 2°55.96 113.5 0.1 202 8
2010-09-02 04:24:29 51°13.661 2°55.96 112.9 0.1 180 8.1
2010-09-02 04:24:33 51°13.661 2°55.96 112.4 0.1 185 8.1
2010-09-02 04:24:39 51°13.661 2°55.96 111.9 0.1 194 8.2
2010-09-02 04:24:44 51°13.661 2°55.96 111.1 -999 252 8.1
2010-09-02 04:24:49 51°13.661 2°55.959 110.7 0.1 285 8.1
2010-09-02 04:24:53 51°13.662 2°55.959 110.5 0.3 293 8.1
2010-09-02 04:24:59 51°13.662 2°55.958 110.4 0.5 299 8.1
2010-09-02 04:25:04 51°13.663 2°55.956 110.2 0.8 295 8.2
2010-09-02 04:25:09 51°13.663 2°55.953 109.7 1.1 296 8.1
2010-09-02 04:25:13 51°13.664 2°55.951 109.1 1.5 296 8.2
2010-09-02 04:25:19 51°13.666 2°55.946 108.8 1.8 297 8.3
2010-09-02 04:25:24 51°13.667 2°55.942 108.6 2.2 294 -999
2010-09-02 04:25:29 51°13.668 2°55.937 108.5 2.5 292 -999
2010-09-02 04:25:35 51°13.67 2°55.929 108.3 2.8 290 -999
2010-09-02 04:25:41 51°13.671 2°55.922 108.1 3.1 290 -999
2010-09-02 04:25:47 51°13.674 2°55.913 107.8 3.4 290 -999
2010-09-02 04:25:52 51°13.675 2°55.905 107.3 3.7 288 -999
2010-09-02 04:25:57 51°13.676 2°55.897 107.1 3.8 287 -999
2010-09-02 04:26:02 51°13.678 2°55.889 106.8 4.1 287 -999
2010-09-02 04:26:07 51°13.68 2°55.88 106.8 4.2 286 -999
2010-09-02 04:26:12 51°13.682 2°55.871 106.8 4.2 287 -999
2010-09-02 04:26:17 51°13.683 2°55.862 106.5 4.2 287 -999
2010-09-02 04:26:22 51°13.685 2°55.853 106.1 4.1 286 -999
2010-09-02 04:26:27 51°13.686 2°55.844 105.5 4.2 284 -999
2010-09-02 04:26:32 51°13.688 2°55.835 105 4.1 285 -999
2010-09-02 04:26:37 51°13.689 2°55.827 104.3 4 284 -999
2010-09-02 04:26:42 51°13.691 2°55.818 103.8 4 285 -999
2010-09-02 04:26:47 51°13.692 2°55.81 103.1 3.9 283 -999
2010-09-02 04:26:52 51°13.693 2°55.802 102.3 3.8 283 -999
2010-09-02 04:26:57 51°13.695 2°55.794 101.8 3.8 282 -999
2010-09-02 04:27:02 51°13.696 2°55.786 101 3.7 283 -999
2010-09-02 04:27:07 51°13.697 2°55.778 100.2 3.6 281 -999
2010-09-02 04:27:12 51°13.698 2°55.77 99.2 3.5 284 -999
2010-09-02 04:27:17 51°13.699 2°55.763 98.4 3.4 283 -999
2010-09-02 04:27:22 51°13.7 2°55.756 97.2 3.2 281 15.9
2010-09-02 04:27:27 51°13.701 2°55.75 96.2 3 281 15.8
2010-09-02 04:27:32 51°13.701 2°55.744 95.3 2.5 280 15
2010-09-02 04:27:37 51°13.702 2°55.74 94.3 2.2 279 14.7
2010-09-02 04:27:41 51°13.702 2°55.737 92.2 1.8 280 14.9
2010-09-02 04:27:46 51°13.703 2°55.734 89.4 1.3 282 14.7
2010-09-02 04:27:51 51°13.703 2°55.732 86.5 1 286 14.6
2010-09-02 04:27:56 51°13.703 2°55.73 83.3 0.6 293 14.8
2010-09-02 04:28:01 51°13.704 2°55.73 79.6 0.5 320 14.8
2010-09-02 04:28:06 51°13.705 2°55.73 75.3 0.4 7 14.8
2010-09-02 04:28:11 51°13.706 2°55.731 70.6 0.7 24 14.9
2010-09-02 04:28:15 51°13.707 2°55.732 65.4 1 32 14.9
2010-09-02 04:28:21 51°13.707 2°55.733 59.9 0.9 32 14.7
2010-09-02 04:28:25 51°13.708 2°55.734 54.3 0.8 28 14.7
2010-09-02 04:28:30 51°13.708 2°55.734 50 0.4 27 14.9
2010-09-02 04:28:35 51°13.709 2°55.734 46.5 0.3 343 14.9
2010-09-02 04:28:40 51°13.709 2°55.733 43.2 0.2 289 14.8
2010-09-02 04:28:45 51°13.709 2°55.732 40 0.4 250 14.6
2010-09-02 04:28:49 51°13.708 2°55.731 37.1 0.7 240 14.5
2010-09-02 04:28:54 51°13.708 2°55.729 34.7 0.9 232 14.4
2010-09-02 04:28:59 51°13.706 2°55.728 32.4 1.2 222 14.6
2010-09-02 04:29:04 51°13.705 2°55.726 30.1 1.2 222 14.9
2010-09-02 04:29:09 51°13.704 2°55.724 27.8 1.1 219 15.2
2010-09-02 04:29:14 51°13.703 2°55.723 25.9 1 220 4.7
2010-09-02 04:29:19 51°13.702 2°55.722 23.6 0.9 218 -999
2010-09-02 04:29:24 51°13.701 2°55.721 21.9 0.7 221 17.2
2010-09-02 04:29:29 51°13.701 2°55.72 20 0.6 224 -999
2010-09-02 04:29:35 51°13.7 2°55.719 18 0.4 228 17.3
2010-09-02 04:29:40 51°13.7 2°55.719 15.9 0.3 242 17.3
2010-09-02 04:29:45 51°13.7 2°55.718 14 0.2 288 17.4
2010-09-02 04:29:49 51°13.7 2°55.718 11.7 0.2 315 17.3
2010-09-02 04:29:54 51°13.701 2°55.718 9.2 0.3 335 17.4
2010-09-02 04:29:59 51°13.701 2°55.717 6.6 0.4 341 17.5
2010-09-02 04:30:04 51°13.702 2°55.717 3.7 0.5 344 17.7
2010-09-02 04:30:09 51°13.703 2°55.717 0.7 0.6 341 17.7
2010-09-02 04:30:13 51°13.704 2°55.717 357.2 0.8 344 17.7
2010-09-02 04:30:19 51°13.706 2°55.716 353.6 1 346 16.6
2010-09-02 04:30:24 51°13.707 2°55.715 349.7 1.1 337 15.4
2010-09-02 04:30:29 51°13.709 2°55.714 346.3 1.4 341 14.8
2010-09-02 04:30:33 51°13.711 2°55.713 343.6 1.7 338 14.2
2010-09-02 04:30:39 51°13.714 2°55.711 341.4 2.1 337 13.7
2010-09-02 04:30:44 51°13.716 2°55.709 339.8 2.5 336 13.2
2010-09-02 04:30:49 51°13.718 2°55.706 338.4 2.7 333 13.1
2010-09-02 04:30:53 51°13.72 2°55.704 337.8 3.1 335 13.5
2010-09-02 04:30:59 51°13.725 2°55.7 337.7 3.5 336 13.4
2010-09-02 04:31:04 51°13.729 2°55.696 338.3 3.7 335 13.4
2010-09-02 04:31:09 51°13.735 2°55.693 339.1 3.9 337 13.4
2010-09-02 04:31:13 51°13.739 2°55.689 339.7 4.3 337 13.2
2010-09-02 04:31:19 51°13.747 2°55.684 339.6 4.7 337 13.2
2010-09-02 04:31:24 51°13.753 2°55.68 338.7 5 335 13.1
2010-09-02 04:31:29 51°13.761 2°55.675 338.1 5.3 335 13.3
2010-09-02 04:31:33 51°13.767 2°55.671 338 5.7 336 13.4
2010-09-02 04:31:39 51°13.777 2°55.665 338 6.1 336 13.7
2010-09-02 04:31:44 51°13.785 2°55.659 337.9 6.5 336 13.5
2010-09-02 04:31:49 51°13.794 2°55.652 337.7 6.8 336 13.5
2010-09-02 04:31:53 51°13.801 2°55.647 337.6 7.1 336 13.4
2010-09-02 04:31:59 51°13.812 2°55.638 337.2 7.4 335 13.3
2010-09-02 04:32:04 51°13.822 2°55.632 337.1 7.7 336 13.3
2010-09-02 04:32:09 51°13.833 2°55.624 337.1 7.9 334 13.2
2010-09-02 04:32:13 51°13.841 2°55.618 337 8.2 335 13
2010-09-02 04:32:19 51°13.854 2°55.609 337.3 8.5 336 12.7
2010-09-02 04:32:24 51°13.866 2°55.601 337.3 8.7 336 12.5
2010-09-02 04:32:29 51°13.876 2°55.592 337 8.8 335 12.3
2010-09-02 04:32:33 51°13.886 2°55.586 337.4 9 336 12.6
2010-09-02 04:32:39 51°13.9 2°55.576 337.9 9.2 336 12.7
2010-09-02 04:32:43 51°13.91 2°55.569 338.1 9.3 337 12.9
2010-09-02 04:32:49 51°13.924 2°55.559 338.2 9.5 337 12.9
2010-09-02 04:32:53 51°13.934 2°55.552 338.2 9.5 336 13
2010-09-02 04:32:58 51°13.946 2°55.544 338.3 9.6 337 12.9
2010-09-02 04:33:04 51°13.96 2°55.533 338.3 9.7 337 12.8
2010-09-02 04:33:09 51°13.973 2°55.525 338.3 9.7 336 12.9
2010-09-02 04:33:13 51°13.983 2°55.518 338.6 9.7 337 12.9
2010-09-02 04:33:19 51°13.997 2°55.507 338.6 9.7 336 12.7
2010-09-02 04:33:24 51°14.01 2°55.499 338.9 9.8 338 12.7
2010-09-02 04:33:29 51°14.023 2°55.491 339.5 9.9 338 12.6
2010-09-02 04:33:33 51°14.033 2°55.484 339.2 9.9 337 12.4
2010-09-02 04:33:39 51°14.048 2°55.474 338.8 9.8 337 12.5
2010-09-02 04:33:44 51°14.06 2°55.465 338.7 9.8 336 12.5
2010-09-02 04:33:49 51°14.072 2°55.455 338.3 9.8 335 12.6
2010-09-02 04:33:53 51°14.082 2°55.448 337.8 9.8 335 12.6
2010-09-02 04:33:59 51°14.097 2°55.437 337.6 9.8 335 12.5
2010-09-02 04:34:04 51°14.11 2°55.428 337.3 10 336 12.5
2010-09-02 04:34:09 51°14.122 2°55.419 337.2 10 335 12.5
2010-09-02 04:34:13 51°14.132 2°55.411 337 9.8 334 12.5
2010-09-02 04:34:19 51°14.147 2°55.399 336.2 10 334 12.5
2010-09-02 04:34:24 51°14.159 2°55.39 336.1 10 335 12.5
2010-09-02 04:34:29 51°14.171 2°55.38 336.1 10 333 12.5
2010-09-02 04:34:33 51°14.181 2°55.372 335.5 9.9 333 12.5
2010-09-02 04:34:38 51°14.193 2°55.362 335.3 9.9 332 12.5
2010-09-02 04:34:44 51°14.208 2°55.35 335.4 9.9 334 12.5
2010-09-02 04:34:49 51°14.22 2°55.34 335.5 9.9 333 12.5
2010-09-02 04:34:53 51°14.23 2°55.331 334.7 10 331 12.5
2010-09-02 04:34:58 51°14.242 2°55.32 333.4 10.1 331 12.5
2010-09-02 04:35:03 51°14.254 2°55.309 332.5 10.2 330 12.3
2010-09-02 04:35:09 51°14.269 2°55.295 331.9 10.2 329 12.5
2010-09-02 04:35:13 51°14.28 2°55.286 331.8 10.4 330 12.5
2010-09-02 04:35:19 51°14.295 2°55.272 332.4 10.5 331 12.5
2010-09-02 04:35:24 51°14.308 2°55.261 333.2 10.5 331 12.5
2010-09-02 04:35:29 51°14.321 2°55.25 333.2 10.6 330 12.5
2010-09-02 04:35:33 51°14.331 2°55.24 332.8 10.7 330 12.2
2010-09-02 04:35:39 51°14.346 2°55.225 331.7 10.7 328 12.5
2010-09-02 04:35:44 51°14.359 2°55.212 330.3 10.8 327 12.2
2010-09-02 04:35:49 51°14.371 2°55.198 328.9 11 326 12.5
2010-09-02 04:35:53 51°14.381 2°55.187 327.5 11 325 12.3
2010-09-02 04:35:59 51°14.396 2°55.17 326.6 11.1 325 12.3
2010-09-02 04:36:04 51°14.409 2°55.156 326.7 11.1 326 12.5
2010-09-02 04:36:09 51°14.422 2°55.143 328.7 11.2 327 12.6
2010-09-02 04:36:13 51°14.433 2°55.132 329.5 11.3 328 12.7
2010-09-02 04:36:19 51°14.449 2°55.116 330.1 11.4 328 12.6
2010-09-02 04:36:24 51°14.463 2°55.103 330.7 11.5 328 12.7
2010-09-02 04:36:29 51°14.476 2°55.089 330.6 11.5 328 12.8
2010-09-02 04:36:33 51°14.487 2°55.078 329.8 11.6 327 12.8
2010-09-02 04:36:39 51°14.504 2°55.062 329.7 11.6 329 13
2010-09-02 04:36:44 51°14.518 2°55.049 330.3 11.8 330 13
2010-09-02 04:36:49 51°14.533 2°55.036 330.4 11.9 330 13.1
2010-09-02 04:36:53 51°14.544 2°55.026 330.3 12 331 13.2
2010-09-02 04:36:59 51°14.562 2°55.011 330 12 331 13.2
2010-09-02 04:37:03 51°14.574 2°55.001 330.4 12.2 333 13.2
2010-09-02 04:37:09 51°14.592 2°54.986 331 12.3 332 13.1
2010-09-02 04:37:13 51°14.604 2°54.976 330.4 12.3 333 13.2
2010-09-02 04:37:18 51°14.619 2°54.962 329.4 12.4 331 13.2
2010-09-02 04:37:23 51°14.634 2°54.948 327.5 12.5 330 13.1
2010-09-02 04:37:29 51°14.652 2°54.931 326.4 12.5 330 13.2
2010-09-02 04:37:33 51°14.664 2°54.92 325.7 12.5 328 13.2
2010-09-02 04:37:39 51°14.682 2°54.901 324.6 12.6 327 13.2
2010-09-02 04:37:44 51°14.696 2°54.885 323.2 12.7 325 13.2
2010-09-02 04:37:49 51°14.71 2°54.87 321.6 12.6 325 13.1
2010-09-02 04:37:54 51°14.725 2°54.853 321.1 12.7 325 13.2
2010-09-02 04:37:59 51°14.739 2°54.837 321.2 12.7 325 13.1
2010-09-02 04:38:04 51°14.754 2°54.821 321.5 12.7 325 13.2
2010-09-02 04:38:09 51°14.769 2°54.805 322 12.7 326 13.3
2010-09-02 04:38:13 51°14.78 2°54.792 322.3 12.8 326 13.1
2010-09-02 04:38:19 51°14.798 2°54.773 322.5 12.8 326 13
2010-09-02 04:38:24 51°14.813 2°54.757 322.5 12.8 326 13.2
2010-09-02 04:38:29 51°14.827 2°54.741 322.3 12.8 325 12.9
2010-09-02 04:38:33 51°14.839 2°54.729 322.3 12.7 326 12.8
2010-09-02 04:38:38 51°14.853 2°54.713 322.4 12.8 326 13.2
2010-09-02 04:38:43 51°14.868 2°54.697 322.6 12.9 326 12.9
2010-09-02 04:38:49 51°14.885 2°54.677 322.1 12.8 324 -999
2010-09-02 04:38:53 51°14.897 2°54.664 321.3 12.8 324 13
2010-09-02 04:38:58 51°14.911 2°54.647 320.8 12.7 323 13.1
2010-09-02 04:39:04 51°14.928 2°54.626 320 12.8 323 12.9
2010-09-02 04:39:09 51°14.942 2°54.609 319.3 12.8 323 12.9
2010-09-02 04:39:13 51°14.953 2°54.596 318.9 12.8 322 11.9
2010-09-02 04:39:18 51°14.967 2°54.578 318.6 12.7 322 11.9
2010-09-02 04:39:23 51°14.981 2°54.561 318.2 12.7 322 11.8
2010-09-02 04:39:29 51°14.997 2°54.54 318.2 12.7 322 11.8
2010-09-02 04:39:33 51°15.008 2°54.526 318.5 12.7 322 11.8
2010-09-02 04:39:38 51°15.022 2°54.509 318.6 12.8 322 11.8
2010-09-02 04:39:43 51°15.037 2°54.492 318.7 12.7 322 11.6
2010-09-02 04:39:49 51°15.053 2°54.471 318.9 12.7 322 11.9
2010-09-02 04:39:53 51°15.065 2°54.457 319 12.8 322 11.8
2010-09-02 04:39:59 51°15.081 2°54.436 319 12.7 322 11.8
2010-09-02 04:40:03 51°15.093 2°54.423 318.8 12.7 322 11.7
2010-09-02 04:40:08 51°15.107 2°54.405 318.8 12.8 323 11.8
2010-09-02 04:40:13 51°15.121 2°54.387 318.8 12.8 322 12
2010-09-02 04:40:18 51°15.134 2°54.37 318.7 12.7 322 11.8
2010-09-02 04:40:23 51°15.148 2°54.353 318.8 12.8 322 12
2010-09-02 04:40:29 51°15.165 2°54.332 318.9 12.8 322 12
2010-09-02 04:40:33 51°15.177 2°54.318 318.9 12.7 322 11.9
2010-09-02 04:40:38 51°15.19 2°54.301 318.8 12.7 322 12.2
2010-09-02 04:40:44 51°15.207 2°54.28 318.7 12.8 322 12.1
2010-09-02 04:40:49 51°15.222 2°54.263 318.9 12.8 323 12.1
2010-09-02 04:40:53 51°15.233 2°54.249 319.1 12.8 322 12.1
2010-09-02 04:40:59 51°15.249 2°54.228 319.1 12.8 323 12.1
2010-09-02 04:41:04 51°15.263 2°54.211 319.2 12.8 323 12.1
2010-09-02 04:41:09 51°15.277 2°54.194 319.1 12.8 322 12.3
2010-09-02 04:41:13 51°15.288 2°54.18 319.1 12.8 322 12.3
2010-09-02 04:41:18 51°15.303 2°54.162 319.2 12.9 323 12.3
2010-09-02 04:41:24 51°15.319 2°54.141 319.4 12.9 323 12.3
2010-09-02 04:41:29 51°15.334 2°54.124 319.5 12.8 322 12.3
2010-09-02 04:41:33 51°15.345 2°54.11 319.2 12.9 322 12.3
2010-09-02 04:41:38 51°15.359 2°54.093 319.1 12.8 322 12.1
2010-09-02 04:41:43 51°15.373 2°54.075 319 12.8 322 12.4
2010-09-02 04:41:49 51°15.39 2°54.055 319 12.8 322 12.3
2010-09-02 04:41:53 51°15.401 2°54.041 319 12.9 323 12.5
2010-09-02 04:41:58 51°15.415 2°54.024 318.8 12.8 322 12.7
2010-09-02 04:42:03 51°15.429 2°54.006 318.7 12.9 322 12.7
2010-09-02 04:42:09 51°15.446 2°53.985 318.9 12.8 322 12.5
2010-09-02 04:42:13 51°15.457 2°53.971 319 12.8 322 12.4
2010-09-02 04:42:19 51°15.473 2°53.95 318.9 12.8 322 12.9
2010-09-02 04:42:23 51°15.485 2°53.936 319 12.9 322 12.9
2010-09-02 04:42:28 51°15.499 2°53.919 319.1 12.8 322 12.7
2010-09-02 04:42:33 51°15.513 2°53.901 319.1 12.8 322 12.9
2010-09-02 04:42:39 51°15.529 2°53.88 319.1 12.7 322 12.9
2010-09-02 04:42:43 51°15.54 2°53.866 319.1 12.8 322 13
2010-09-02 04:42:49 51°15.557 2°53.846 319.4 12.7 323 13.1
2010-09-02 04:42:53 51°15.569 2°53.832 320.1 12.8 323 13.1
2010-09-02 04:42:58 51°15.583 2°53.816 320.6 12.8 324 13
2010-09-02 04:43:04 51°15.6 2°53.796 320.9 12.7 323 13
2010-09-02 04:43:09 51°15.614 2°53.779 321.2 12.7 324 13
2010-09-02 04:43:13 51°15.625 2°53.766 321.2 12.7 324 13.1
2010-09-02 04:43:18 51°15.64 2°53.75 321.4 12.8 324 13.2
2010-09-02 04:43:23 51°15.654 2°53.733 321.5 12.7 324 13.2
2010-09-02 04:43:29 51°15.672 2°53.714 321.6 12.8 324 13.2
2010-09-02 04:43:33 51°15.683 2°53.7 321.6 12.7 324 13.3
2010-09-02 04:43:38 51°15.697 2°53.684 321.5 12.8 324 13
2010-09-02 04:43:43 51°15.712 2°53.667 321.4 12.8 325 13.1
2010-09-02 04:43:49 51°15.729 2°53.648 321.7 12.7 325 13.2
2010-09-02 04:43:53 51°15.74 2°53.635 322.2 12.7 325 13.3
2010-09-02 04:43:58 51°15.755 2°53.619 322.2 12.8 325 13.3
2010-09-02 04:44:03 51°15.769 2°53.602 322.4 12.8 325 13.2
2010-09-02 04:44:09 51°15.786 2°53.583 322.7 12.7 325 13.2
2010-09-02 04:44:13 51°15.798 2°53.57 322.9 12.8 325 13.5
2010-09-02 04:44:18 51°15.813 2°53.554 322.9 12.8 325 13.3
2010-09-02 04:44:23 51°15.828 2°53.538 322.9 12.8 326 13.3
2010-09-02 04:44:29 51°15.846 2°53.52 323.9 12.8 327 13.4
2010-09-02 04:44:33 51°15.858 2°53.508 324.4 12.8 327 13.4
2010-09-02 04:44:38 51°15.873 2°53.493 325.2 12.8 329 13.4
2010-09-02 04:44:43 51°15.888 2°53.478 325.4 12.7 328 13.2
2010-09-02 04:44:49 51°15.906 2°53.461 326.2 12.8 329 13.3
2010-09-02 04:44:53 51°15.918 2°53.449 326.7 12.8 329 13.5
2010-09-02 04:44:58 51°15.934 2°53.435 327.2 12.9 330 13.5
2010-09-02 04:45:03 51°15.949 2°53.421 327.5 12.8 330 13.5
2010-09-02 04:45:09 51°15.968 2°53.404 327.7 12.9 330 13.6
2010-09-02 04:45:13 51°15.98 2°53.392 327.8 12.9 330 13.6
2010-09-02 04:45:18 51°15.996 2°53.379 328.2 12.9 331 13.3
2010-09-02 04:45:23 51°16.011 2°53.365 328.5 12.9 331 13.7
2010-09-02 04:45:29 51°16.03 2°53.349 329 13 331 13.7
2010-09-02 04:45:33 51°16.043 2°53.338 329 12.9 331 13.4
2010-09-02 04:45:38 51°16.059 2°53.324 328.8 12.9 331 13.7
2010-09-02 04:45:43 51°16.074 2°53.31 328.6 12.9 331 13.5
2010-09-02 04:45:49 51°16.093 2°53.294 328.7 12.8 332 13.8
2010-09-02 04:45:53 51°16.106 2°53.283 329 12.8 332 13.7
2010-09-02 04:45:58 51°16.121 2°53.27 329 12.8 331 13.8
2010-09-02 04:46:04 51°16.14 2°53.254 328.9 12.8 331 13.6
2010-09-02 04:46:09 51°16.155 2°53.24 328.8 12.7 331 13.5
2010-09-02 04:46:13 51°16.168 2°53.229 328.6 12.7 331 13.6
2010-09-02 04:46:18 51°16.183 2°53.216 328.3 12.7 331 13.8
2010-09-02 04:46:23 51°16.199 2°53.202 328.4 12.8 331 13.8
2010-09-02 04:46:29 51°16.217 2°53.186 328.5 12.7 331 13.9
2010-09-02 04:46:33 51°16.23 2°53.175 328.6 12.7 332 13.5
2010-09-02 04:46:38 51°16.245 2°53.162 328.7 12.7 331 13.9
2010-09-02 04:46:43 51°16.261 2°53.148 328.7 12.8 331 13.9
2010-09-02 04:46:49 51°16.279 2°53.132 328.7 12.7 331 13.7
2010-09-02 04:46:53 51°16.292 2°53.121 328.7 12.8 331 13.9
2010-09-02 04:46:59 51°16.31 2°53.105 328.5 12.8 331 13.7
2010-09-02 04:47:03 51°16.323 2°53.094 328.3 12.7 331 13.8
2010-09-02 04:47:08 51°16.338 2°53.08 328.3 12.7 330 13.7
2010-09-02 04:47:13 51°16.353 2°53.066 328.3 12.7 331 13.6
2010-09-02 04:47:18 51°16.369 2°53.052 328.6 12.8 331 13.9
2010-09-02 04:47:23 51°16.384 2°53.039 328.8 12.7 331 13.8
2010-09-02 04:47:29 51°16.403 2°53.023 328.9 12.7 331 13.9
2010-09-02 04:47:33 51°16.415 2°53.012 328.9 12.7 331 14
2010-09-02 04:47:38 51°16.43 2°52.998 328.7 12.6 331 13.8
2010-09-02 04:47:43 51°16.446 2°52.985 328.9 12.7 331 13.9
2010-09-02 04:47:49 51°16.464 2°52.968 328.9 12.6 331 13.6
2010-09-02 04:47:53 51°16.476 2°52.957 328.5 12.6 331 13.7
2010-09-02 04:47:58 51°16.492 2°52.944 328.3 12.7 331 14
2010-09-02 04:48:03 51°16.507 2°52.93 328.4 12.7 330 13.6
2010-09-02 04:48:09 51°16.526 2°52.913 328.4 12.8 331 13.7
2010-09-02 04:48:13 51°16.538 2°52.903 328.5 12.7 330 13.7
2010-09-02 04:48:18 51°16.553 2°52.889 328.5 12.6 331 13.7
2010-09-02 04:48:24 51°16.572 2°52.872 328.5 12.7 331 13.7
2010-09-02 04:48:29 51°16.587 2°52.859 328.7 12.7 331 13.5
2010-09-02 04:48:33 51°16.599 2°52.848 328.7 12.7 331 13.5
2010-09-02 04:48:39 51°16.618 2°52.832 328.7 12.8 331 13.6
2010-09-02 04:48:43 51°16.63 2°52.821 328.7 12.7 331 13.3
2010-09-02 04:48:49 51°16.648 2°52.805 328.6 12.7 331 13.3
2010-09-02 04:48:53 51°16.661 2°52.794 328.6 12.8 331 13.2
2010-09-02 04:48:58 51°16.677 2°52.781 329.2 12.8 333 13.1
2010-09-02 04:49:03 51°16.692 2°52.768 330 12.8 332 13
2010-09-02 04:49:09 51°16.712 2°52.753 330.5 12.8 334 12.7
2010-09-02 04:49:13 51°16.724 2°52.743 331.3 12.8 334 12.6
2010-09-02 04:49:18 51°16.74 2°52.731 332.2 12.9 335 12.2
2010-09-02 04:49:23 51°16.757 2°52.72 333 12.8 336 11.7
2010-09-02 04:49:28 51°16.773 2°52.708 333.4 12.8 337 11.9
2010-09-02 04:49:33 51°16.79 2°52.698 335 12.9 339 11.8
2010-09-02 04:49:38 51°16.806 2°52.688 336 12.9 339 11.9
2010-09-02 04:49:43 51°16.823 2°52.678 336.8 13 340 11.8
2010-09-02 04:49:49 51°16.843 2°52.666 337.5 13 340 11.7
2010-09-02 04:49:53 51°16.857 2°52.659 338 13 341 11.8
2010-09-02 04:49:58 51°16.874 2°52.65 339 13 342 11.6
2010-09-02 04:50:03 51°16.892 2°52.641 339.8 13 342 11.8
2010-09-02 04:50:08 51°16.909 2°52.634 340.8 13 344 12
2010-09-02 04:50:13 51°16.926 2°52.625 341.3 13 343 12.2
2010-09-02 04:50:18 51°16.944 2°52.617 341.8 13 344 11.8
2010-09-02 04:50:24 51°16.965 2°52.608 342.2 13 344 11.8
2010-09-02 04:50:29 51°16.982 2°52.6 342.5 13.1 345 11.9
2010-09-02 04:50:33 51°16.996 2°52.594 342.6 13.1 344 12
2010-09-02 04:50:38 51°17.014 2°52.586 342.6 13.1 345 11.8
2010-09-02 04:50:43 51°17.031 2°52.578 342.6 13 344 11.7
2010-09-02 04:50:49 51°17.052 2°52.569 342.5 13 344 11.6
2010-09-02 04:50:53 51°17.066 2°52.562 342.4 13.1 344 12.1
2010-09-02 04:50:58 51°17.083 2°52.554 342.2 13.1 344 11.7
2010-09-02 04:51:03 51°17.1 2°52.546 342.2 13 344 11.7
2010-09-02 04:51:09 51°17.121 2°52.537 342.4 13 344 11.7
2010-09-02 04:51:13 51°17.135 2°52.531 342.4 13.1 345 12.1
2010-09-02 04:51:17 51°17.149 2°52.524 342.4 13.1 344 12
2010-09-02 04:51:23 51°17.17 2°52.515 342.2 13.1 344 11.9
2010-09-02 04:51:28 51°17.188 2°52.506 342.2 13.2 343 12.1
2010-09-02 04:51:33 51°17.205 2°52.498 341.9 13.2 344 12
2010-09-02 04:51:38 51°17.223 2°52.49 341.9 13.1 344 12.5
2010-09-02 04:51:43 51°17.24 2°52.482 342.1 13.1 344 12.2
2010-09-02 04:51:48 51°17.258 2°52.474 342.1 13.2 344 12.2
2010-09-02 04:51:53 51°17.275 2°52.466 341.9 13.2 344 12.5
2010-09-02 04:51:58 51°17.293 2°52.458 342 13.2 344 12.1
2010-09-02 04:52:04 51°17.314 2°52.448 341.9 13.2 344 12.3
2010-09-02 04:52:08 51°17.328 2°52.442 341.9 13.2 344 12.5
2010-09-02 04:52:13 51°17.346 2°52.434 342.1 13.3 344 12.4
2010-09-02 04:52:18 51°17.364 2°52.426 342.2 13.3 344 12.5
2010-09-02 04:52:23 51°17.381 2°52.417 341.9 13.2 343 12.3
2010-09-02 04:52:29 51°17.402 2°52.408 341.7 13.3 344 12.7
2010-09-02 04:52:33 51°17.416 2°52.401 341.9 13.3 344 12.3
2010-09-02 04:52:38 51°17.434 2°52.395 343.3 13.2 346 12.5
2010-09-02 04:52:43 51°17.452 2°52.387 343.8 13.2 346 12.5
2010-09-02 04:52:49 51°17.473 2°52.38 344.5 13.2 348 12.3
2010-09-02 04:52:53 51°17.488 2°52.376 346.2 13.2 349 12.6
2010-09-02 04:52:58 51°17.506 2°52.37 347.6 13.3 350 12.6
2010-09-02 04:53:03 51°17.524 2°52.366 348.5 13.3 351 12.3
2010-09-02 04:53:09 51°17.546 2°52.361 349.4 13.3 352 12.6
2010-09-02 04:53:13 51°17.561 2°52.358 350.6 13.4 353 12.5
2010-09-02 04:53:18 51°17.579 2°52.353 350.9 13.4 352 12.6
2010-09-02 04:53:23 51°17.597 2°52.35 351.7 13.3 354 12.7
2010-09-02 04:53:28 51°17.616 2°52.347 352.1 13.3 353 12.5
2010-09-02 04:53:33 51°17.634 2°52.345 353.4 13.3 356 12.5
2010-09-02 04:53:38 51°17.653 2°52.344 355.7 13.4 358 12.4
2010-09-02 04:53:43 51°17.671 2°52.343 356.8 13.4 359 12.6
2010-09-02 04:53:49 51°17.693 2°52.343 358.4 13.4 -999 12.5
2010-09-02 04:53:53 51°17.708 2°52.344 359.8 13.3 1 12.2
2010-09-02 04:53:58 51°17.727 2°52.345 0.8 13.4 2 12.5
2010-09-02 04:54:03 51°17.745 2°52.346 1.4 13.5 3 12.5
2010-09-02 04:54:08 51°17.764 2°52.348 2.2 13.5 3 12.4
2010-09-02 04:54:13 51°17.783 2°52.35 2.7 13.5 4 12.4
2010-09-02 04:54:18 51°17.802 2°52.352 3.3 13.5 4 12.5
2010-09-02 04:54:23 51°17.82 2°52.354 3.3 13.5 5 12.5
2010-09-02 04:54:29 51°17.842 2°52.359 5.1 13.5 8 12.6
2010-09-02 04:54:33 51°17.857 2°52.362 7.4 13.4 7 12.5
2010-09-02 04:54:38 51°17.875 2°52.367 8.9 13.5 10 12.6
2010-09-02 04:54:43 51°17.894 2°52.372 9.8 13.5 10 12.6
2010-09-02 04:54:49 51°17.916 2°52.381 11.1 13.6 14 12.5
2010-09-02 04:54:53 51°17.931 2°52.385 12.1 13.5 11 12.5
2010-09-02 04:54:58 51°17.949 2°52.395 14.2 13.6 17 12.7
2010-09-02 04:55:03 51°17.966 2°52.403 17.2 13.5 16 12.6
2010-09-02 04:55:09 51°17.987 2°52.416 18.7 13.4 22 12.6
2010-09-02 04:55:13 51°18.001 2°52.423 20.4 13.4 19 12.6
2010-09-02 04:55:17 51°18.014 2°52.432 21.9 13.4 23 12.5
2010-09-02 04:55:23 51°18.035 2°52.447 23.9 13.4 22 12.7
2010-09-02 04:55:28 51°18.053 2°52.46 25 13.6 27 12.7
2010-09-02 04:55:33 51°18.069 2°52.473 26.3 13.5 25 12.6
2010-09-02 04:55:38 51°18.086 2°52.486 27.1 13.4 28 12.8
2010-09-02 04:55:43 51°18.103 2°52.499 28.2 13.5 27 12.7
2010-09-02 04:55:48 51°18.119 2°52.513 28.1 13.5 28 12.8
2010-09-02 04:55:53 51°18.136 2°52.528 28.9 13.5 29 13
2010-09-02 04:55:58 51°18.152 2°52.542 29.5 13.5 29 13
2010-09-02 04:56:04 51°18.171 2°52.562 33 13.5 35 12.6
2010-09-02 04:56:08 51°18.183 2°52.575 34.9 13.4 34 12.8
2010-09-02 04:56:13 51°18.198 2°52.594 37.1 13.4 37 13
2010-09-02 04:56:18 51°18.213 2°52.611 38.3 13.4 37 12.9
2010-09-02 04:56:23 51°18.227 2°52.631 40.1 13.4 39 13
2010-09-02 04:56:29 51°18.244 2°52.653 40.7 13.5 40 13.3
2010-09-02 04:56:33 51°18.256 2°52.669 42 13.5 41 13.1
2010-09-02 04:56:38 51°18.27 2°52.689 42.6 13.4 42 13.1
2010-09-02 04:56:43 51°18.284 2°52.709 43.3 13.5 42 13
2010-09-02 04:56:48 51°18.297 2°52.729 43.6 13.4 42 13
2010-09-02 04:56:53 51°18.312 2°52.749 44.1 13.5 42 13.2
2010-09-02 04:56:58 51°18.326 2°52.769 43.7 13.5 41 13.1
2010-09-02 04:57:03 51°18.34 2°52.788 42.4 13.4 40 13.3
2010-09-02 04:57:09 51°18.357 2°52.81 41.9 13.4 40 12.9
2010-09-02 04:57:13 51°18.369 2°52.825 41.3 13.5 39 13.3
2010-09-02 04:57:18 51°18.383 2°52.844 40.7 13.5 39 13.4
2010-09-02 04:57:23 51°18.398 2°52.862 40.2 13.5 38 13.3
2010-09-02 04:57:29 51°18.416 2°52.884 39.6 13.3 38 13
2010-09-02 04:57:33 51°18.428 2°52.899 39.5 13.4 38 13.3
2010-09-02 04:57:38 51°18.443 2°52.917 39.4 13.5 38 13.4
2010-09-02 04:57:43 51°18.458 2°52.935 39.3 13.5 38 13.3
2010-09-02 04:57:48 51°18.472 2°52.953 39.3 13.4 38 13.1
2010-09-02 04:57:53 51°18.487 2°52.971 39.3 13.4 37 13.4
2010-09-02 04:57:58 51°18.502 2°52.989 38.8 13.4 37 13.5
2010-09-02 04:58:03 51°18.517 2°53.007 38.6 13.4 37 13.3
2010-09-02 04:58:08 51°18.532 2°53.025 38.6 13.5 37 13.4
2010-09-02 04:58:13 51°18.546 2°53.042 38.3 13.4 37 13.3
2010-09-02 04:58:18 51°18.561 2°53.06 38.3 13.3 37 13.1
2010-09-02 04:58:23 51°18.576 2°53.078 38.2 13.5 36 13.5
2010-09-02 04:58:29 51°18.594 2°53.099 37.9 13.4 37 13.5
2010-09-02 04:58:33 51°18.606 2°53.113 38.1 13.4 37 13.3
2010-09-02 04:58:38 51°18.621 2°53.131 38.2 13.5 36 13.4
2010-09-02 04:58:43 51°18.636 2°53.148 37.9 13.4 36 13.5
2010-09-02 04:58:48 51°18.651 2°53.166 37.7 13.4 36 13.5
2010-09-02 04:58:53 51°18.666 2°53.184 37.7 13.5 36 13.6
2010-09-02 04:58:58 51°18.681 2°53.201 37.6 13.4 36 13.6
2010-09-02 04:59:03 51°18.696 2°53.219 37.3 13.5 36 13.6
2010-09-02 04:59:09 51°18.714 2°53.239 37.3 13.4 36 13.5
2010-09-02 04:59:13 51°18.726 2°53.254 37.6 13.4 37 13.5
2010-09-02 04:59:18 51°18.741 2°53.271 38.6 13.4 37 13.6
2010-09-02 04:59:23 51°18.755 2°53.29 39.2 13.4 38 13.6
2010-09-02 04:59:29 51°18.774 2°53.312 39.3 13.5 37 13.7
2010-09-02 04:59:33 51°18.785 2°53.327 39.3 13.5 38 13.6
2010-09-02 04:59:38 51°18.8 2°53.345 39.6 13.4 38 13.5
2010-09-02 04:59:43 51°18.815 2°53.363 39.9 13.4 38 13.5
2010-09-02 04:59:49 51°18.832 2°53.385 39.7 13.5 38 13.8
2010-09-02 04:59:53 51°18.844 2°53.4 39.5 13.5 38 13.8
2010-09-02 04:59:58 51°18.859 2°53.418 39.6 13.3 38 13.5
2010-09-02 05:00:03 51°18.873 2°53.436 39.5 13.4 38 13.8
2010-09-02 05:00:09 51°18.891 2°53.458 39.4 13.4 38 13.8
2010-09-02 05:00:13 51°18.903 2°53.472 39.3 13.5 37 13.9
2010-09-02 05:00:18 51°18.918 2°53.49 39.1 13.5 38 13.8
2010-09-02 05:00:23 51°18.933 2°53.509 39.1 13.6 38 13.9
2010-09-02 05:00:29 51°18.951 2°53.53 39.3 13.5 37 13.6
2010-09-02 05:00:33 51°18.962 2°53.545 39.5 13.5 38 13.6
2010-09-02 05:00:38 51°18.977 2°53.564 39.8 13.5 38 13.8
2010-09-02 05:00:43 51°18.992 2°53.582 39.5 13.4 38 13.9
2010-09-02 05:00:48 51°19.006 2°53.6 39.3 13.4 38 14.1
2010-09-02 05:00:53 51°19.021 2°53.618 39.3 13.5 38 14
2010-09-02 05:00:58 51°19.036 2°53.636 39.2 13.5 37 13.8
2010-09-02 05:01:03 51°19.051 2°53.654 39.1 13.4 37 13.8
2010-09-02 05:01:09 51°19.069 2°53.676 38.9 13.4 37 13.9
2010-09-02 05:01:13 51°19.081 2°53.69 38.9 13.5 37 14
2010-09-02 05:01:18 51°19.096 2°53.709 38.8 13.5 38 13.9
2010-09-02 05:01:23 51°19.111 2°53.727 38.9 13.5 37 14.1
2010-09-02 05:01:29 51°19.128 2°53.748 38.8 13.5 38 14.2
2010-09-02 05:01:33 51°19.14 2°53.763 39 13.4 38 14
2010-09-02 05:01:38 51°19.155 2°53.781 39.2 13.4 37 13.9
2010-09-02 05:01:43 51°19.17 2°53.799 38.9 13.5 38 14.1
2010-09-02 05:01:49 51°19.188 2°53.82 38.8 13.4 36 14
2010-09-02 05:01:53 51°19.2 2°53.835 38.4 13.5 38 13.9
2010-09-02 05:01:57 51°19.212 2°53.849 38.7 13.5 37 14.2
2010-09-02 05:02:03 51°19.23 2°53.871 38.7 13.5 37 14.2
2010-09-02 05:02:08 51°19.245 2°53.888 38.6 13.4 37 14.2
2010-09-02 05:02:13 51°19.26 2°53.907 38.8 13.5 38 14.3
2010-09-02 05:02:18 51°19.275 2°53.925 38.8 13.6 38 14.2
2010-09-02 05:02:23 51°19.289 2°53.943 39 13.5 37 14.1
2010-09-02 05:02:28 51°19.304 2°53.961 39.2 13.4 38 14.1
2010-09-02 05:02:33 51°19.319 2°53.979 39.1 13.5 37 14.3
2010-09-02 05:02:38 51°19.334 2°53.997 38.5 13.4 37 14.1
2010-09-02 05:02:44 51°19.351 2°54.019 38.4 13.3 37 13.9
2010-09-02 05:02:48 51°19.363 2°54.033 38.3 13.5 37 14.1
2010-09-02 05:02:53 51°19.378 2°54.051 38.5 13.5 37 14.5
2010-09-02 05:02:58 51°19.393 2°54.069 38.3 13.4 36 14.2
2010-09-02 05:03:03 51°19.408 2°54.086 38.2 13.3 37 14.2
2010-09-02 05:03:09 51°19.426 2°54.108 38.2 13.4 37 14.1
2010-09-02 05:03:13 51°19.437 2°54.122 38.1 13.4 37 14.3
2010-09-02 05:03:18 51°19.452 2°54.141 38.1 13.5 37 14.3
2010-09-02 05:03:23 51°19.467 2°54.159 38.1 13.4 38 14.3
2010-09-02 05:03:28 51°19.482 2°54.177 38.5 13.3 38 14.4
2010-09-02 05:03:33 51°19.496 2°54.195 38.6 13.3 38 14.3
2010-09-02 05:03:38 51°19.511 2°54.214 38.6 13.4 38 14.4
2010-09-02 05:03:43 51°19.526 2°54.231 38.2 13.4 37 14.5
2010-09-02 05:03:49 51°19.544 2°54.253 38 13.3 38 14.2
2010-09-02 05:03:53 51°19.556 2°54.267 38.4 13.3 37 14.3
2010-09-02 05:03:58 51°19.57 2°54.286 38.4 13.5 38 14.4
2010-09-02 05:04:03 51°19.585 2°54.304 38.1 13.5 37 14.6
2010-09-02 05:04:09 51°19.602 2°54.325 37.8 13.3 38 14.3
2010-09-02 05:04:13 51°19.614 2°54.34 38.3 13.3 38 14.4
2010-09-02 05:04:18 51°19.629 2°54.358 38.1 13.4 38 14.6
2010-09-02 05:04:23 51°19.644 2°54.376 38.2 13.3 37 14.8
2010-09-02 05:04:29 51°19.661 2°54.398 38.2 13.5 38 14.6
2010-09-02 05:04:33 51°19.673 2°54.412 38.2 13.5 37 14.6
2010-09-02 05:04:38 51°19.688 2°54.431 37.9 13.4 38 14.7
2010-09-02 05:04:43 51°19.703 2°54.449 38.2 13.4 38 14.5
2010-09-02 05:04:48 51°19.717 2°54.467 38.5 13.4 38 14.5
2010-09-02 05:04:53 51°19.732 2°54.485 38.6 13.4 37 14.9
2010-09-02 05:04:58 51°19.746 2°54.503 38.2 13.3 39 14.8
2010-09-02 05:05:03 51°19.761 2°54.521 38.5 13.4 37 14.8
2010-09-02 05:05:09 51°19.779 2°54.543 38 13.4 38 14.8
2010-09-02 05:05:13 51°19.791 2°54.557 38.2 13.4 37 14.9
2010-09-02 05:05:18 51°19.806 2°54.575 37.9 13.4 38 14.9
2010-09-02 05:05:23 51°19.82 2°54.593 38 13.4 37 15
2010-09-02 05:05:28 51°19.835 2°54.611 38.1 13.4 38 15.1
2010-09-02 05:05:33 51°19.85 2°54.63 38.4 13.5 38 14.9
2010-09-02 05:05:38 51°19.865 2°54.648 38.4 13.5 38 15
2010-09-02 05:05:43 51°19.879 2°54.666 38.6 13.4 38 15
2010-09-02 05:05:49 51°19.897 2°54.688 38.2 13.5 38 15.2
2010-09-02 05:05:53 51°19.909 2°54.702 38.1 13.5 38 15.1
2010-09-02 05:05:58 51°19.923 2°54.72 38.4 13.4 38 15.2
2010-09-02 05:06:03 51°19.938 2°54.739 38.5 13.4 38 15
2010-09-02 05:06:09 51°19.956 2°54.76 38.2 13.4 38 14.9
2010-09-02 05:06:13 51°19.968 2°54.775 38.3 13.4 38 15.2
2010-09-02 05:06:18 51°19.982 2°54.793 38.4 13.4 38 15.2
2010-09-02 05:06:23 51°19.997 2°54.811 38.3 13.4 37 15
2010-09-02 05:06:29 51°20.014 2°54.833 38.1 13.4 38 15.1
2010-09-02 05:06:33 51°20.026 2°54.848 38.1 13.4 38 15.4
2010-09-02 05:06:37 51°20.038 2°54.862 38.4 13.4 38 15.2
2010-09-02 05:06:43 51°20.056 2°54.884 38.3 13.4 37 14.9
2010-09-02 05:06:48 51°20.07 2°54.902 38.2 13.4 38 15.2
2010-09-02 05:06:53 51°20.085 2°54.92 38.4 13.4 38 15.3
2010-09-02 05:06:58 51°20.1 2°54.938 38.4 13.5 38 15.2
2010-09-02 05:07:03 51°20.115 2°54.956 38.4 13.4 37 14.9
2010-09-02 05:07:08 51°20.129 2°54.974 38.5 13.3 38 15
2010-09-02 05:07:13 51°20.144 2°54.992 38.5 13.4 37 15.2
2010-09-02 05:07:18 51°20.159 2°55.01 38 13.4 38 15.4
2010-09-02 05:07:24 51°20.176 2°55.032 38.3 13.4 37 15.1
2010-09-02 05:07:28 51°20.188 2°55.046 38.2 13.4 37 15.2
2010-09-02 05:07:33 51°20.203 2°55.064 38.2 13.4 37 15.2
2010-09-02 05:07:37 51°20.215 2°55.079 38.2 13.5 38 15.3
2010-09-02 05:07:43 51°20.233 2°55.101 38.6 13.5 38 15.3
2010-09-02 05:07:48 51°20.247 2°55.119 38.5 13.4 37 15.2
2010-09-02 05:07:53 51°20.262 2°55.137 38.4 13.4 37 15.4
2010-09-02 05:07:58 51°20.276 2°55.155 38.5 13.4 38 15.4
2010-09-02 05:08:03 51°20.291 2°55.173 38.5 13.5 38 15.5
2010-09-02 05:08:09 51°20.309 2°55.195 38.7 13.5 38 15.3
2010-09-02 05:08:13 51°20.32 2°55.21 38.8 13.4 38 15.5
2010-09-02 05:08:18 51°20.335 2°55.228 38.5 13.4 37 15.5
2010-09-02 05:08:23 51°20.35 2°55.246 38.5 13.5 38 15.4
2010-09-02 05:08:29 51°20.368 2°55.267 38.1 13.4 36 15.5
2010-09-02 05:08:33 51°20.38 2°55.282 37.8 13.4 38 15.6
2010-09-02 05:08:38 51°20.395 2°55.3 38.2 13.5 37 15.5
2010-09-02 05:08:43 51°20.41 2°55.318 38 13.5 38 15.4
2010-09-02 05:08:49 51°20.428 2°55.34 38 13.4 37 15.3
2010-09-02 05:08:53 51°20.439 2°55.354 38.2 13.4 37 15.6
2010-09-02 05:08:58 51°20.454 2°55.372 38.2 13.4 38 15.7
2010-09-02 05:09:03 51°20.469 2°55.391 38.5 13.5 38 15.6
2010-09-02 05:09:09 51°20.487 2°55.412 38.5 13.5 38 15.6
2010-09-02 05:09:13 51°20.499 2°55.427 38.5 13.5 38 15.6
2010-09-02 05:09:18 51°20.514 2°55.445 38.4 13.5 38 15.6
2010-09-02 05:09:23 51°20.529 2°55.463 38.4 13.5 38 15.7
2010-09-02 05:09:29 51°20.546 2°55.485 38.4 13.5 38 15.6
2010-09-02 05:09:33 51°20.558 2°55.5 38.4 13.4 38 16
2010-09-02 05:09:38 51°20.573 2°55.518 38.4 13.4 38 15.7
2010-09-02 05:09:43 51°20.588 2°55.536 38.5 13.4 37 15.6
2010-09-02 05:09:48 51°20.602 2°55.554 38.2 13.5 38 16.1
2010-09-02 05:09:53 51°20.617 2°55.572 38.4 13.5 37 15.9
2010-09-02 05:09:58 51°20.632 2°55.59 38.1 13.5 37 15.9
2010-09-02 05:10:04 51°20.65 2°55.612 38.2 13.4 38 15.9
2010-09-02 05:10:08 51°20.662 2°55.627 38.2 13.5 38 16
2010-09-02 05:10:13 51°20.677 2°55.645 38.2 13.5 37 16
2010-09-02 05:10:18 51°20.691 2°55.663 38 13.4 37 15.7
2010-09-02 05:10:23 51°20.706 2°55.681 38.3 13.4 37 16
2010-09-02 05:10:28 51°20.721 2°55.699 38 13.5 38 15.9
2010-09-02 05:10:33 51°20.736 2°55.717 38.3 13.5 38 16
2010-09-02 05:10:38 51°20.751 2°55.735 38.2 13.5 37 15.9
2010-09-02 05:10:44 51°20.769 2°55.757 38.4 13.5 37 16.1
2010-09-02 05:10:49 51°20.783 2°55.776 38.5 13.5 38 16.3
2010-09-02 05:10:53 51°20.795 2°55.79 38.5 13.4 37 16
2010-09-02 05:10:57 51°20.807 2°55.804 38.1 13.4 38 16.3
2010-09-02 05:11:03 51°20.825 2°55.826 38.5 13.5 38 16.2
2010-09-02 05:11:08 51°20.839 2°55.844 38.1 13.5 37 16.1
2010-09-02 05:11:13 51°20.854 2°55.862 38.1 13.5 37 16
2010-09-02 05:11:18 51°20.869 2°55.881 38.4 13.5 37 16.2
2010-09-02 05:11:23 51°20.884 2°55.898 38 13.5 37 16.2
2010-09-02 05:11:29 51°20.902 2°55.92 38.2 13.5 37 16.2
2010-09-02 05:11:33 51°20.914 2°55.935 38.2 13.5 37 16.2
2010-09-02 05:11:38 51°20.928 2°55.953 38.6 13.4 38 16.2
2010-09-02 05:11:43 51°20.943 2°55.971 38.6 13.5 37 16.3
2010-09-02 05:11:48 51°20.958 2°55.99 38.7 13.5 38 16.3
2010-09-02 05:11:53 51°20.973 2°56.008 38.7 13.4 37 16.3
2010-09-02 05:11:57 51°20.985 2°56.023 38.8 13.4 38 16.5
2010-09-02 05:12:03 51°21.003 2°56.044 38.5 13.5 37 16.5
2010-09-02 05:12:08 51°21.017 2°56.063 38.5 13.5 38 16.7
2010-09-02 05:12:13 51°21.032 2°56.081 38.2 13.5 37 16.5
2010-09-02 05:12:18 51°21.047 2°56.099 38.3 13.6 38 16.5
2010-09-02 05:12:23 51°21.062 2°56.117 38 13.5 37 16.6
2010-09-02 05:12:29 51°21.08 2°56.139 38 13.5 37 16.5
2010-09-02 05:12:33 51°21.092 2°56.154 38.1 13.5 37 16.6
2010-09-02 05:12:38 51°21.106 2°56.172 38.2 13.5 38 16.5
2010-09-02 05:12:44 51°21.125 2°56.194 38.5 13.6 37 16.7
2010-09-02 05:12:48 51°21.136 2°56.208 38.2 13.5 38 16.6
2010-09-02 05:12:53 51°21.151 2°56.226 38.4 13.5 37 16.6
2010-09-02 05:12:58 51°21.166 2°56.245 38 13.5 37 16.6
2010-09-02 05:13:04 51°21.183 2°56.267 38.4 13.5 38 16.7
2010-09-02 05:13:09 51°21.198 2°56.285 38.2 13.5 38 16.9
2010-09-02 05:13:13 51°21.21 2°56.3 38.2 13.6 38 16.8
2010-09-02 05:13:18 51°21.225 2°56.318 38.3 13.5 38 16.9
2010-09-02 05:13:23 51°21.24 2°56.336 38.4 13.6 38 17
2010-09-02 05:13:29 51°21.258 2°56.358 38 13.5 37 16.7
2010-09-02 05:13:33 51°21.27 2°56.372 38.4 13.4 38 17
2010-09-02 05:13:38 51°21.285 2°56.39 38.2 13.5 37 17
2010-09-02 05:13:43 51°21.3 2°56.409 38.2 13.5 38 16.9
2010-09-02 05:13:48 51°21.315 2°56.427 38.3 13.6 38 16.9
2010-09-02 05:13:53 51°21.33 2°56.445 38.5 13.6 38 17.2
2010-09-02 05:13:58 51°21.344 2°56.463 38.6 13.6 38 17.2
2010-09-02 05:14:03 51°21.359 2°56.482 38.6 13.5 37 17
2010-09-02 05:14:08 51°21.374 2°56.499 38.1 13.5 37 17.2
2010-09-02 05:14:13 51°21.389 2°56.518 38.4 13.5 38 17.3
2010-09-02 05:14:18 51°21.404 2°56.537 38.4 13.6 37 17.2
2010-09-02 05:14:23 51°21.419 2°56.554 38.2 13.5 38 17.1
2010-09-02 05:14:29 51°21.437 2°56.576 38.4 13.5 37 17.3
2010-09-02 05:14:33 51°21.448 2°56.59 38.1 13.4 37 17.4
2010-09-02 05:14:38 51°21.464 2°56.609 38.1 13.6 37 17.3
2010-09-02 05:14:43 51°21.478 2°56.627 38.2 13.6 38 17.5
2010-09-02 05:14:48 51°21.493 2°56.646 38.3 13.6 37 17.6
2010-09-02 05:14:53 51°21.508 2°56.664 38.2 13.6 37 17.3
2010-09-02 05:14:58 51°21.523 2°56.682 38.4 13.6 37 17.3
2010-09-02 05:15:03 51°21.538 2°56.7 38.4 13.5 37 17.4
2010-09-02 05:15:09 51°21.556 2°56.722 38.3 13.6 37 17.5
2010-09-02 05:15:13 51°21.568 2°56.737 38.5 13.6 38 17.3
2010-09-02 05:15:18 51°21.583 2°56.755 38.6 13.6 37 17.3
2010-09-02 05:15:23 51°21.598 2°56.774 38.6 13.6 38 17.6
2010-09-02 05:15:29 51°21.616 2°56.795 38.6 13.6 37 17.5
2010-09-02 05:15:33 51°21.628 2°56.81 38.4 13.6 38 17.6
2010-09-02 05:15:38 51°21.643 2°56.828 38.5 13.6 37 17.9
2010-09-02 05:15:43 51°21.658 2°56.846 38.3 13.5 37 17.7
2010-09-02 05:15:48 51°21.673 2°56.865 38.2 13.6 37 17.6
2010-09-02 05:15:53 51°21.688 2°56.883 38 13.7 38 17.9
2010-09-02 05:15:58 51°21.704 2°56.901 38 13.7 37 18
2010-09-02 05:16:03 51°21.719 2°56.919 37.8 13.6 37 18
2010-09-02 05:16:08 51°21.733 2°56.938 38.2 13.5 37 17.7
2010-09-02 05:16:13 51°21.748 2°56.956 38.1 13.5 37 18
2010-09-02 05:16:18 51°21.763 2°56.974 38.3 13.6 37 18.3
2010-09-02 05:16:23 51°21.779 2°56.993 38.2 13.6 37 18.2
2010-09-02 05:16:29 51°21.797 2°57.014 38.2 13.6 37 18
2010-09-02 05:16:33 51°21.809 2°57.029 38.1 13.6 38 18.1
2010-09-02 05:16:37 51°21.821 2°57.044 38.3 13.6 37 18.1
2010-09-02 05:16:43 51°21.839 2°57.066 38.7 13.6 38 18.3
2010-09-02 05:16:48 51°21.854 2°57.084 38.4 13.6 37 18.4
2010-09-02 05:16:53 51°21.869 2°57.103 38.6 13.6 38 18.2
2010-09-02 05:16:58 51°21.884 2°57.121 38.2 13.6 36 18.3
2010-09-02 05:17:03 51°21.899 2°57.139 38.2 13.6 37 18.2
2010-09-02 05:17:09 51°21.918 2°57.161 38.5 13.6 37 18.1
2010-09-02 05:17:13 51°21.929 2°57.176 38 13.6 37 18.3
2010-09-02 05:17:18 51°21.944 2°57.194 38.3 13.6 37 18.5
2010-09-02 05:17:24 51°21.963 2°57.216 38.3 13.6 37 18.3
2010-09-02 05:17:28 51°21.975 2°57.231 38.4 13.6 37 18.3
2010-09-02 05:17:33 51°21.99 2°57.249 38.1 13.7 37 18.4
2010-09-02 05:17:37 51°22.002 2°57.264 38.1 13.6 37 18.4
2010-09-02 05:17:43 51°22.02 2°57.286 38.1 13.6 37 18.2
2010-09-02 05:17:48 51°22.035 2°57.304 38.2 13.7 37 18.5
2010-09-02 05:17:53 51°22.05 2°57.322 38.2 13.7 37 18.9
2010-09-02 05:17:58 51°22.065 2°57.341 38.1 13.7 37 19
2010-09-02 05:18:03 51°22.08 2°57.359 38.3 13.6 38 18.7
2010-09-02 05:18:09 51°22.099 2°57.381 38.3 13.6 37 18.6
2010-09-02 05:18:13 51°22.111 2°57.396 38.2 13.6 37 18.8
2010-09-02 05:18:18 51°22.126 2°57.414 38.5 13.7 37 19
2010-09-02 05:18:23 51°22.141 2°57.432 38.4 13.6 37 18.9
2010-09-02 05:18:28 51°22.156 2°57.451 38.3 13.7 37 19.1
2010-09-02 05:18:33 51°22.171 2°57.469 38.3 13.6 37 18.8
2010-09-02 05:18:38 51°22.186 2°57.488 38.6 13.6 38 18.7
2010-09-02 05:18:43 51°22.201 2°57.506 38.6 13.6 37 18.9
2010-09-02 05:18:49 51°22.219 2°57.528 38.3 13.6 37 19
2010-09-02 05:18:53 51°22.231 2°57.542 38.1 13.7 37 19.1
2010-09-02 05:18:58 51°22.246 2°57.561 38 13.6 37 18.9
2010-09-02 05:19:03 51°22.262 2°57.579 38.2 13.7 37 19
2010-09-02 05:19:08 51°22.276 2°57.597 38.1 13.6 37 19.2
2010-09-02 05:19:13 51°22.292 2°57.616 38.1 13.6 37 19
2010-09-02 05:19:18 51°22.307 2°57.634 38 13.6 37 19.3
2010-09-02 05:19:23 51°22.322 2°57.652 37.9 13.6 37 19.3
2010-09-02 05:19:29 51°22.34 2°57.675 38.3 13.7 38 19.4
2010-09-02 05:19:33 51°22.352 2°57.689 38.5 13.8 38 19.4
2010-09-02 05:19:38 51°22.367 2°57.708 38.6 13.7 37 19.4
2010-09-02 05:19:43 51°22.382 2°57.727 38.3 13.7 38 19.3
2010-09-02 05:19:49 51°22.4 2°57.749 38.8 13.7 38 19.6
2010-09-02 05:19:53 51°22.412 2°57.764 38.5 13.7 38 19.4
2010-09-02 05:19:58 51°22.427 2°57.783 38.6 13.7 38 19.6
2010-09-02 05:20:03 51°22.442 2°57.801 37.9 13.7 37 19.4
2010-09-02 05:20:09 51°22.461 2°57.823 38.2 13.8 38 19.7
2010-09-02 05:20:13 51°22.473 2°57.838 38.3 13.7 37 19.5
2010-09-02 05:20:18 51°22.488 2°57.857 38.5 13.7 38 19.4
2010-09-02 05:20:23 51°22.503 2°57.875 38.6 13.7 37 19.4
2010-09-02 05:20:28 51°22.517 2°57.894 38.3 13.7 39 19.2
2010-09-02 05:20:33 51°22.532 2°57.913 38.6 13.7 38 19.2
2010-09-02 05:20:38 51°22.547 2°57.933 40.1 13.7 42 19.7
2010-09-02 05:20:43 51°22.561 2°57.953 41.2 13.7 40 19.6
2010-09-02 05:20:49 51°22.578 2°57.977 42.2 13.6 43 19.2
2010-09-02 05:20:53 51°22.589 2°57.993 42.9 13.6 42 19.4
2010-09-02 05:20:57 51°22.6 2°58.01 43.6 13.6 44 19.5
2010-09-02 05:21:03 51°22.616 2°58.035 44.1 13.6 43 19.6
2010-09-02 05:21:08 51°22.63 2°58.057 45.1 13.7 47 19.3
2010-09-02 05:21:13 51°22.643 2°58.078 46.5 13.7 45 19.4
2010-09-02 05:21:18 51°22.656 2°58.101 46.5 13.7 48 19.4
2010-09-02 05:21:23 51°22.668 2°58.123 48.3 13.7 47 19.7
2010-09-02 05:21:29 51°22.684 2°58.15 47.9 13.7 47 19.4
2010-09-02 05:21:33 51°22.694 2°58.169 48.6 13.7 49 19.6
2010-09-02 05:21:38 51°22.707 2°58.19 48.7 13.7 47 19.6
2010-09-02 05:21:44 51°22.722 2°58.218 49.2 13.7 49 19.6
2010-09-02 05:21:48 51°22.732 2°58.236 49.1 13.7 48 19.6
2010-09-02 05:21:53 51°22.745 2°58.259 49 13.7 48 19.7
2010-09-02 05:21:58 51°22.758 2°58.282 49.1 13.8 48 19.6
2010-09-02 05:22:03 51°22.771 2°58.305 49.3 13.8 49 19.5
2010-09-02 05:22:09 51°22.786 2°58.332 49.4 13.8 48 19.7
2010-09-02 05:22:13 51°22.796 2°58.351 49.4 13.8 49 19.3
2010-09-02 05:22:18 51°22.809 2°58.373 49.4 13.7 47 19.3
2010-09-02 05:22:23 51°22.821 2°58.396 49 13.7 48 19.6
2010-09-02 05:22:28 51°22.834 2°58.418 48.8 13.7 47 19.5
2010-09-02 05:22:33 51°22.847 2°58.441 48.7 13.6 48 19.6
2010-09-02 05:22:38 51°22.86 2°58.464 49 13.7 49 19.6
2010-09-02 05:22:43 51°22.872 2°58.486 49 13.7 50 19.9
2010-09-02 05:22:48 51°22.884 2°58.51 50.8 13.7 52 20
2010-09-02 05:22:53 51°22.896 2°58.534 51.7 13.7 51 19.5
2010-09-02 05:22:58 51°22.907 2°58.558 52.7 13.7 53 19.7
2010-09-02 05:23:03 51°22.919 2°58.581 53.4 13.7 51 19.5
2010-09-02 05:23:08 51°22.93 2°58.606 54.1 13.6 55 19.3
2010-09-02 05:23:13 51°22.941 2°58.63 54.6 13.6 53 19.7
2010-09-02 05:23:18 51°22.952 2°58.655 55.2 13.7 55 19.7
2010-09-02 05:23:23 51°22.963 2°58.68 55.6 13.7 54 19.7
2010-09-02 05:23:29 51°22.977 2°58.709 55.5 13.7 54 19.6
2010-09-02 05:23:33 51°22.985 2°58.729 55.6 13.6 55 19.7
2010-09-02 05:23:38 51°22.996 2°58.755 56.9 13.7 56 19.9
2010-09-02 05:23:43 51°23.007 2°58.78 57.6 13.7 57 20
2010-09-02 05:23:48 51°23.017 2°58.805 58 13.7 57 20
2010-09-02 05:23:53 51°23.027 2°58.831 58.8 13.7 58 19.6
2010-09-02 05:23:58 51°23.037 2°58.857 58.9 13.8 58 19.9
2010-09-02 05:24:03 51°23.048 2°58.882 59.1 13.7 57 19.7
2010-09-02 05:24:09 51°23.06 2°58.914 59.5 13.7 59 19.8
2010-09-02 05:24:13 51°23.068 2°58.934 59.7 13.7 57 19.6
2010-09-02 05:24:18 51°23.078 2°58.96 59.7 13.6 59 19.9
2010-09-02 05:24:23 51°23.088 2°58.986 60.1 13.7 58 19.7
2010-09-02 05:24:29 51°23.1 2°59.017 59.6 13.7 59 19.6
2010-09-02 05:24:33 51°23.108 2°59.037 59.7 13.7 58 19.8
2010-09-02 05:24:38 51°23.118 2°59.063 59.3 13.8 58 20
2010-09-02 05:24:43 51°23.129 2°59.088 58.7 13.8 56 19.9
2010-09-02 05:24:49 51°23.142 2°59.119 58.1 13.8 57 19.8
2010-09-02 05:24:53 51°23.15 2°59.139 57.7 13.7 55 19.7
2010-09-02 05:24:58 51°23.161 2°59.164 57.2 13.7 56 19.7
2010-09-02 05:25:03 51°23.172 2°59.189 57 13.8 55 19.9
2010-09-02 05:25:08 51°23.183 2°59.214 56.6 13.8 55 19.8
2010-09-02 05:25:13 51°23.193 2°59.239 56.8 13.7 56 19.8
2010-09-02 05:25:18 51°23.205 2°59.264 56.8 13.7 55 19.7
2010-09-02 05:25:23 51°23.215 2°59.289 56.7 13.8 56 19.6
2010-09-02 05:25:29 51°23.229 2°59.319 56.9 13.8 55 19.9
2010-09-02 05:25:33 51°23.237 2°59.339 56.7 13.7 55 19.9
2010-09-02 05:25:38 51°23.248 2°59.364 56.7 13.7 55 19.7
2010-09-02 05:25:43 51°23.259 2°59.388 56.6 13.7 55 19.7
2010-09-02 05:25:48 51°23.27 2°59.414 56.5 13.8 56 19.7
2010-09-02 05:25:53 51°23.28 2°59.438 56.7 13.8 55 19.9
2010-09-02 05:25:58 51°23.291 2°59.463 56.6 13.7 56 19.7
2010-09-02 05:26:03 51°23.302 2°59.489 56.9 13.8 55 19.9
2010-09-02 05:26:09 51°23.315 2°59.518 56.8 13.7 55 19.7
2010-09-02 05:26:13 51°23.324 2°59.539 56.7 13.7 56 20.1
2010-09-02 05:26:17 51°23.332 2°59.559 56.7 13.8 55 20.3
2010-09-02 05:26:24 51°23.348 2°59.594 56.7 13.7 55 20
2010-09-02 05:26:28 51°23.356 2°59.614 56.7 13.7 55 20
2010-09-02 05:26:33 51°23.367 2°59.639 56.5 13.8 55 19.8
2010-09-02 05:26:38 51°23.378 2°59.664 56.4 13.7 55 19.7
2010-09-02 05:26:43 51°23.389 2°59.689 56.3 13.8 55 19.9
2010-09-02 05:26:49 51°23.402 2°59.719 56.5 13.7 55 19.7
2010-09-02 05:26:53 51°23.411 2°59.739 56.1 13.7 54 19.7
2010-09-02 05:26:58 51°23.422 2°59.763 56.5 13.6 55 19.7
2010-09-02 05:27:03 51°23.434 2°59.786 54.1 13.6 48 19.6
2010-09-02 05:27:08 51°23.447 2°59.808 50.6 13.7 48 19.8
2010-09-02 05:27:13 51°23.46 2°59.831 48.1 13.7 46 19.7
2010-09-02 05:27:18 51°23.474 2°59.851 46.1 13.6 44 20.1
2010-09-02 05:27:23 51°23.488 2°59.871 43.7 13.6 41 19.9
2010-09-02 05:27:29 51°23.506 2°59.894 40.5 13.7 39 20
2010-09-02 05:27:33 51°23.518 2°59.909 39.2 13.7 38 20
2010-09-02 05:27:38 51°23.534 2°59.926 37.2 13.7 35 20.1
2010-09-02 05:27:43 51°23.549 2°59.944 36.1 13.7 36 20.1
2010-09-02 05:27:48 51°23.565 2°59.961 34.8 13.6 33 20
2010-09-02 05:27:53 51°23.581 2°59.978 33.7 13.6 34 20
2010-09-02 05:27:58 51°23.597 2°59.993 32.3 13.7 30 20
2010-09-02 05:28:03 51°23.613 3°0.009 31 13.7 31 20.1
2010-09-02 05:28:09 51°23.633 3°0.026 30.3 13.6 28 20.1
2010-09-02 05:28:13 51°23.646 3°0.038 29.2 13.7 30 20
2010-09-02 05:28:18 51°23.663 3°0.052 28.5 13.7 27 20.4
2010-09-02 05:28:23 51°23.68 3°0.067 28.1 13.6 29 20.3
2010-09-02 05:28:28 51°23.697 3°0.081 27.9 13.7 27 20.4
2010-09-02 05:28:33 51°23.713 3°0.095 27.4 13.7 28 20.2
2010-09-02 05:28:38 51°23.73 3°0.109 27.5 13.7 28 20.3
2010-09-02 05:28:43 51°23.747 3°0.124 27.5 13.7 28 20.5
2010-09-02 05:28:49 51°23.767 3°0.141 27.6 13.6 28 20.1
2010-09-02 05:28:53 51°23.78 3°0.152 27.5 13.6 27 20.1
2010-09-02 05:28:58 51°23.797 3°0.165 27.3 13.6 27 20.1
2010-09-02 05:29:03 51°23.814 3°0.18 27.7 13.6 28 20.3
2010-09-02 05:29:09 51°23.833 3°0.198 28 13.6 29 20.4
2010-09-02 05:29:13 51°23.847 3°0.209 28.5 13.6 28 20.3
2010-09-02 05:29:18 51°23.864 3°0.223 28.2 13.7 28 20
2010-09-02 05:29:23 51°23.88 3°0.238 28.6 13.6 29 20.1
2010-09-02 05:29:28 51°23.897 3°0.252 28.1 13.7 28 19.9
2010-09-02 05:29:33 51°23.913 3°0.267 28.5 13.7 29 19.5
2010-09-02 05:29:38 51°23.93 3°0.281 28.4 13.6 27 19.6
2010-09-02 05:29:43 51°23.946 3°0.296 28.8 13.7 30 19.6
2010-09-02 05:29:48 51°23.963 3°0.31 28.7 13.7 28 19.5
2010-09-02 05:29:53 51°23.979 3°0.325 28.7 13.7 29 19.1
2010-09-02 05:29:58 51°23.996 3°0.339 28.7 13.7 29 19.3
2010-09-02 05:30:03 51°24.013 3°0.355 28.8 13.7 29 19.1
2010-09-02 05:30:09 51°24.032 3°0.372 28.8 13.5 29 18.8
2010-09-02 05:30:13 51°24.046 3°0.384 29 13.6 29 19
2010-09-02 05:30:18 51°24.062 3°0.399 29.1 13.7 29 18.8
2010-09-02 05:30:23 51°24.079 3°0.413 29 13.6 30 18.6
2010-09-02 05:30:28 51°24.095 3°0.429 29.5 13.6 30 18.7
2010-09-02 05:30:33 51°24.111 3°0.444 29.5 13.6 30 18.5
2010-09-02 05:30:38 51°24.127 3°0.459 29.4 13.5 30 18.3
2010-09-02 05:30:43 51°24.144 3°0.473 29.7 13.4 30 18.5
2010-09-02 05:30:49 51°24.163 3°0.491 29.7 13.4 30 18.5
2010-09-02 05:30:53 51°24.176 3°0.503 29.2 13.3 30 18.2
2010-09-02 05:30:57 51°24.188 3°0.515 29.3 13.3 30 18.4
2010-09-02 05:31:03 51°24.208 3°0.533 29.4 13.4 30 18.2
2010-09-02 05:31:08 51°24.224 3°0.548 29.7 13.3 30 18
2010-09-02 05:31:13 51°24.24 3°0.562 29.5 13.3 30 18.3
2010-09-02 05:31:18 51°24.256 3°0.577 29.6 13.3 30 18.1
2010-09-02 05:31:23 51°24.272 3°0.592 29.6 13.3 30 18.2
2010-09-02 05:31:29 51°24.291 3°0.61 29.6 13.3 30 18
2010-09-02 05:31:33 51°24.304 3°0.622 29.6 13.3 30 17.9
2010-09-02 05:31:38 51°24.32 3°0.637 29.4 13.4 30 18.1
2010-09-02 05:31:43 51°24.336 3°0.651 29.6 13.4 30 17.8
2010-09-02 05:31:48 51°24.351 3°0.666 29.7 13.3 31 17.8
2010-09-02 05:31:53 51°24.368 3°0.681 29.5 13.2 29 17.9
2010-09-02 05:31:58 51°24.383 3°0.696 29.6 13.3 31 18
2010-09-02 05:32:03 51°24.399 3°0.711 29.8 13.3 30 17.7
2010-09-02 05:32:09 51°24.418 3°0.729 29.8 13.4 31 17.7
2010-09-02 05:32:13 51°24.431 3°0.741 30.2 13.3 30 17.6
2010-09-02 05:32:18 51°24.447 3°0.756 30 13.3 31 17.8
2010-09-02 05:32:23 51°24.463 3°0.771 30.1 13.3 30 17.8
2010-09-02 05:32:28 51°24.479 3°0.786 29.9 13.3 31 17.9
2010-09-02 05:32:33 51°24.495 3°0.801 29.9 13.3 31 17.6
2010-09-02 05:32:38 51°24.51 3°0.817 30.2 13.3 32 18.1
2010-09-02 05:32:43 51°24.526 3°0.831 30.3 13.3 30 17.7
2010-09-02 05:32:49 51°24.545 3°0.849 30 13.2 31 18.1
2010-09-02 05:32:53 51°24.558 3°0.861 30 13.3 31 18.6
2010-09-02 05:32:58 51°24.573 3°0.876 29.8 13.3 31 20.1
2010-09-02 05:33:03 51°24.589 3°0.891 30 13.3 31 21.3
2010-09-02 05:33:08 51°24.605 3°0.906 30.1 13.2 31 20.9
2010-09-02 05:33:13 51°24.621 3°0.922 30.2 13.2 31 21
2010-09-02 05:33:18 51°24.637 3°0.937 30 13.2 31 21
2010-09-02 05:33:23 51°24.652 3°0.951 29.8 13.2 31 21
2010-09-02 05:33:29 51°24.671 3°0.97 29.9 13.2 31 21.1
2010-09-02 05:33:33 51°24.684 3°0.982 30.2 13.2 31 20.9
2010-09-02 05:33:38 51°24.7 3°0.997 30.3 13.2 31 20.7
2010-09-02 05:33:43 51°24.715 3°1.012 30.1 13.2 31 20.8
2010-09-02 05:33:49 51°24.734 3°1.03 29.7 13.1 31 20.6
2010-09-02 05:33:53 51°24.746 3°1.041 29.9 13.2 31 21
2010-09-02 05:33:58 51°24.762 3°1.055 29.9 13.2 30 21.1
2010-09-02 05:34:03 51°24.777 3°1.07 29.7 13.2 31 20.8
2010-09-02 05:34:09 51°24.797 3°1.088 29.8 13.2 31 20.9
2010-09-02 05:34:13 51°24.809 3°1.101 30.3 13.2 32 21.2
2010-09-02 05:34:18 51°24.825 3°1.116 30.3 13.2 30 20.1
2010-09-02 05:34:23 51°24.84 3°1.131 30.2 13.2 32 19.5
2010-09-02 05:34:28 51°24.856 3°1.146 30.2 13.2 32 19.2
2010-09-02 05:34:33 51°24.871 3°1.161 30.7 13.2 32 18.9
2010-09-02 05:34:38 51°24.886 3°1.176 31.3 13.1 33 18.3
2010-09-02 05:34:43 51°24.902 3°1.193 32.3 13.1 33 18.3
2010-09-02 05:34:49 51°24.92 3°1.212 32.3 13.2 33 18.1
2010-09-02 05:34:53 51°24.932 3°1.225 33 13.2 35 17.7